sensor_id;sensor_type;location;lat;lon;timestamp;P1;durP1;ratioP1;P2;durP2;ratioP2
4762;SDS011;2395;50.738;7.122;2022-08-01T00:00:26;3.50;;;2.20;;
4762;SDS011;2395;50.738;7.122;2022-08-01T00:02:54;4.57;;;2.10;;
4762;SDS011;2395;50.738;7.122;2022-08-01T00:05:22;2.27;;;1.73;;
4762;SDS011;2395;50.738;7.122;2022-08-01T00:08:06;3.77;;;2.20;;
4762;SDS011;2395;50.738;7.122;2022-08-01T00:10:38;2.57;;;1.60;;
4762;SDS011;2395;50.738;7.122;2022-08-01T00:13:08;3.37;;;1.67;;
4762;SDS011;2395;50.738;7.122;2022-08-01T00:15:49;4.93;;;2.70;;
4762;SDS011;2395;50.738;7.122;2022-08-01T00:18:19;4.13;;;3.30;;
4762;SDS011;2395;50.738;7.122;2022-08-01T00:20:49;4.10;;;2.13;;
4762;SDS011;2395;50.738;7.122;2022-08-01T00:23:21;2.80;;;2.00;;
4762;SDS011;2395;50.738;7.122;2022-08-01T00:25:54;3.10;;;2.00;;
4762;SDS011;2395;50.738;7.122;2022-08-01T00:28:27;5.93;;;3.60;;
4762;SDS011;2395;50.738;7.122;2022-08-01T00:30:55;5.70;;;2.33;;
4762;SDS011;2395;50.738;7.122;2022-08-01T00:33:31;10.30;;;3.10;;
4762;SDS011;2395;50.738;7.122;2022-08-01T00:36:19;2.77;;;1.70;;
4762;SDS011;2395;50.738;7.122;2022-08-01T00:38:51;6.37;;;2.60;;
4762;SDS011;2395;50.738;7.122;2022-08-01T00:41:25;4.47;;;1.80;;
4762;SDS011;2395;50.738;7.122;2022-08-01T00:43:53;5.30;;;2.90;;
4762;SDS011;2395;50.738;7.122;2022-08-01T00:46:22;3.90;;;2.07;;
4762;SDS011;2395;50.738;7.122;2022-08-01T00:48:56;3.87;;;2.70;;
4762;SDS011;2395;50.738;7.122;2022-08-01T00:51:27;4.90;;;2.60;;
4762;SDS011;2395;50.738;7.122;2022-08-01T00:54:06;9.53;;;1.80;;
4762;SDS011;2395;50.738;7.122;2022-08-01T00:56:37;6.63;;;3.23;;
4762;SDS011;2395;50.738;7.122;2022-08-01T00:59:05;6.63;;;3.00;;
4762;SDS011;2395;50.738;7.122;2022-08-01T01:01:37;3.00;;;1.97;;
4762;SDS011;2395;50.738;7.122;2022-08-01T01:04:07;3.70;;;2.10;;
4762;SDS011;2395;50.738;7.122;2022-08-01T01:06:44;5.37;;;2.10;;
4762;SDS011;2395;50.738;7.122;2022-08-01T01:09:28;3.43;;;2.43;;
4762;SDS011;2395;50.738;7.122;2022-08-01T01:12:22;6.00;;;3.90;;
4762;SDS011;2395;50.738;7.122;2022-08-01T01:15:03;7.73;;;3.80;;
4762;SDS011;2395;50.738;7.122;2022-08-01T01:17:44;4.77;;;3.53;;
4762;SDS011;2395;50.738;7.122;2022-08-01T01:20:24;5.27;;;3.37;;
4762;SDS011;2395;50.738;7.122;2022-08-01T01:23:05;4.17;;;2.23;;
4762;SDS011;2395;50.738;7.122;2022-08-01T01:26:04;5.80;;;2.40;;
4762;SDS011;2395;50.738;7.122;2022-08-01T01:29:03;5.57;;;2.17;;
4762;SDS011;2395;50.738;7.122;2022-08-01T01:31:43;7.23;;;2.20;;
4762;SDS011;2395;50.738;7.122;2022-08-01T01:34:51;3.80;;;2.40;;
4762;SDS011;2395;50.738;7.122;2022-08-01T01:37:29;3.50;;;2.20;;
4762;SDS011;2395;50.738;7.122;2022-08-01T01:40:02;2.40;;;1.97;;
4762;SDS011;2395;50.738;7.122;2022-08-01T01:42:37;5.00;;;2.30;;
4762;SDS011;2395;50.738;7.122;2022-08-01T01:45:13;2.77;;;2.00;;
4762;SDS011;2395;50.738;7.122;2022-08-01T01:47:53;3.70;;;2.30;;
4762;SDS011;2395;50.738;7.122;2022-08-01T01:50:25;3.20;;;2.00;;
4762;SDS011;2395;50.738;7.122;2022-08-01T01:53:01;3.27;;;2.00;;
4762;SDS011;2395;50.738;7.122;2022-08-01T01:55:38;4.33;;;2.50;;
4762;SDS011;2395;50.738;7.122;2022-08-01T01:58:13;6.33;;;2.40;;
4762;SDS011;2395;50.738;7.122;2022-08-01T02:01:14;4.60;;;2.43;;
4762;SDS011;2395;50.738;7.122;2022-08-01T02:03:53;3.37;;;2.53;;
4762;SDS011;2395;50.738;7.122;2022-08-01T02:06:25;6.23;;;2.67;;
4762;SDS011;2395;50.738;7.122;2022-08-01T02:09:03;4.83;;;2.73;;
4762;SDS011;2395;50.738;7.122;2022-08-01T02:11:46;4.50;;;2.97;;
4762;SDS011;2395;50.738;7.122;2022-08-01T02:14:23;2.60;;;1.93;;
4762;SDS011;2395;50.738;7.122;2022-08-01T02:17:00;4.03;;;2.60;;
4762;SDS011;2395;50.738;7.122;2022-08-01T02:19:40;3.27;;;2.27;;
4762;SDS011;2395;50.738;7.122;2022-08-01T02:22:24;3.10;;;2.40;;
4762;SDS011;2395;50.738;7.122;2022-08-01T02:25:10;2.80;;;1.90;;
4762;SDS011;2395;50.738;7.122;2022-08-01T02:27:58;5.10;;;2.60;;
4762;SDS011;2395;50.738;7.122;2022-08-01T02:31:01;4.20;;;2.40;;
4762;SDS011;2395;50.738;7.122;2022-08-01T02:33:57;3.80;;;2.50;;
4762;SDS011;2395;50.738;7.122;2022-08-01T02:36:34;5.03;;;2.53;;
4762;SDS011;2395;50.738;7.122;2022-08-01T02:39:09;2.83;;;2.27;;
4762;SDS011;2395;50.738;7.122;2022-08-01T02:41:54;5.00;;;2.77;;
4762;SDS011;2395;50.738;7.122;2022-08-01T02:44:33;4.43;;;2.60;;
4762;SDS011;2395;50.738;7.122;2022-08-01T02:47:12;7.43;;;2.90;;
4762;SDS011;2395;50.738;7.122;2022-08-01T02:49:52;4.03;;;2.53;;
4762;SDS011;2395;50.738;7.122;2022-08-01T02:52:28;5.87;;;3.23;;
4762;SDS011;2395;50.738;7.122;2022-08-01T02:55:01;5.73;;;3.10;;
4762;SDS011;2395;50.738;7.122;2022-08-01T02:57:38;3.90;;;2.77;;
4762;SDS011;2395;50.738;7.122;2022-08-01T03:00:18;4.67;;;2.70;;
4762;SDS011;2395;50.738;7.122;2022-08-01T03:03:12;4.33;;;2.43;;
4762;SDS011;2395;50.738;7.122;2022-08-01T03:05:56;4.20;;;2.90;;
4762;SDS011;2395;50.738;7.122;2022-08-01T03:08:31;5.80;;;2.57;;
4762;SDS011;2395;50.738;7.122;2022-08-01T03:11:04;8.70;;;2.87;;
4762;SDS011;2395;50.738;7.122;2022-08-01T03:13:38;5.03;;;2.80;;
4762;SDS011;2395;50.738;7.122;2022-08-01T03:16:08;8.63;;;2.60;;
4762;SDS011;2395;50.738;7.122;2022-08-01T03:18:57;4.60;;;2.60;;
4762;SDS011;2395;50.738;7.122;2022-08-01T03:21:35;4.10;;;2.80;;
4762;SDS011;2395;50.738;7.122;2022-08-01T03:24:07;6.80;;;2.70;;
4762;SDS011;2395;50.738;7.122;2022-08-01T03:26:43;4.80;;;2.40;;
4762;SDS011;2395;50.738;7.122;2022-08-01T03:29:18;4.50;;;2.60;;
4762;SDS011;2395;50.738;7.122;2022-08-01T03:31:56;5.63;;;2.50;;
4762;SDS011;2395;50.738;7.122;2022-08-01T03:34:39;4.90;;;2.80;;
4762;SDS011;2395;50.738;7.122;2022-08-01T03:37:25;4.00;;;2.70;;
4762;SDS011;2395;50.738;7.122;2022-08-01T03:40:13;10.17;;;2.67;;
4762;SDS011;2395;50.738;7.122;2022-08-01T03:43:00;5.93;;;2.87;;
4762;SDS011;2395;50.738;7.122;2022-08-01T03:45:54;3.83;;;2.67;;
4762;SDS011;2395;50.738;7.122;2022-08-01T03:48:40;4.90;;;2.97;;
4762;SDS011;2395;50.738;7.122;2022-08-01T03:51:15;3.70;;;2.67;;
4762;SDS011;2395;50.738;7.122;2022-08-01T03:53:49;4.33;;;2.53;;
4762;SDS011;2395;50.738;7.122;2022-08-01T03:56:21;8.47;;;3.30;;
4762;SDS011;2395;50.738;7.122;2022-08-01T03:58:57;6.70;;;3.33;;
4762;SDS011;2395;50.738;7.122;2022-08-01T04:01:41;6.70;;;3.37;;
4762;SDS011;2395;50.738;7.122;2022-08-01T04:04:20;6.63;;;3.13;;
4762;SDS011;2395;50.738;7.122;2022-08-01T04:06:58;4.93;;;3.47;;
4762;SDS011;2395;50.738;7.122;2022-08-01T04:09:32;6.57;;;3.10;;
4762;SDS011;2395;50.738;7.122;2022-08-01T04:12:04;6.10;;;3.73;;
4762;SDS011;2395;50.738;7.122;2022-08-01T04:14:52;4.70;;;3.40;;
4762;SDS011;2395;50.738;7.122;2022-08-01T04:17:25;5.10;;;2.87;;
4762;SDS011;2395;50.738;7.122;2022-08-01T04:20:02;4.93;;;3.27;;
4762;SDS011;2395;50.738;7.122;2022-08-01T04:22:32;6.37;;;3.30;;
4762;SDS011;2395;50.738;7.122;2022-08-01T04:25:03;7.93;;;3.37;;
4762;SDS011;2395;50.738;7.122;2022-08-01T04:27:52;6.67;;;3.57;;
4762;SDS011;2395;50.738;7.122;2022-08-01T04:30:35;8.63;;;3.97;;
4762;SDS011;2395;50.738;7.122;2022-08-01T04:33:08;3.80;;;3.20;;
4762;SDS011;2395;50.738;7.122;2022-08-01T04:35:47;7.37;;;3.63;;
4762;SDS011;2395;50.738;7.122;2022-08-01T04:38:19;6.60;;;4.10;;
4762;SDS011;2395;50.738;7.122;2022-08-01T04:40:58;8.50;;;4.67;;
4762;SDS011;2395;50.738;7.122;2022-08-01T04:43:34;6.30;;;4.53;;
4762;SDS011;2395;50.738;7.122;2022-08-01T04:46:06;5.90;;;4.00;;
4762;SDS011;2395;50.738;7.122;2022-08-01T04:48:47;7.90;;;4.43;;
4762;SDS011;2395;50.738;7.122;2022-08-01T04:51:22;8.10;;;5.47;;
4762;SDS011;2395;50.738;7.122;2022-08-01T04:54:03;6.83;;;4.40;;
4762;SDS011;2395;50.738;7.122;2022-08-01T04:56:39;7.67;;;5.13;;
4762;SDS011;2395;50.738;7.122;2022-08-01T04:59:16;7.80;;;4.97;;
4762;SDS011;2395;50.738;7.122;2022-08-01T05:02:03;8.20;;;5.30;;
4762;SDS011;2395;50.738;7.122;2022-08-01T05:04:47;10.90;;;5.10;;
4762;SDS011;2395;50.738;7.122;2022-08-01T05:07:17;6.37;;;4.10;;
4762;SDS011;2395;50.738;7.122;2022-08-01T05:09:58;8.27;;;5.10;;
4762;SDS011;2395;50.738;7.122;2022-08-01T05:12:28;8.63;;;5.37;;
4762;SDS011;2395;50.738;7.122;2022-08-01T05:15:04;6.27;;;5.10;;
4762;SDS011;2395;50.738;7.122;2022-08-01T05:17:46;8.80;;;5.73;;
4762;SDS011;2395;50.738;7.122;2022-08-01T05:20:24;13.23;;;6.70;;
4762;SDS011;2395;50.738;7.122;2022-08-01T05:22:55;9.40;;;5.60;;
4762;SDS011;2395;50.738;7.122;2022-08-01T05:25:35;8.83;;;5.60;;
4762;SDS011;2395;50.738;7.122;2022-08-01T05:28:10;8.17;;;6.50;;
4762;SDS011;2395;50.738;7.122;2022-08-01T05:31:01;18.27;;;12.07;;
4762;SDS011;2395;50.738;7.122;2022-08-01T05:34:22;8.90;;;7.23;;
4762;SDS011;2395;50.738;7.122;2022-08-01T05:37:10;10.60;;;6.83;;
4762;SDS011;2395;50.738;7.122;2022-08-01T05:39:44;9.80;;;7.60;;
4762;SDS011;2395;50.738;7.122;2022-08-01T05:42:24;9.70;;;7.23;;
4762;SDS011;2395;50.738;7.122;2022-08-01T05:45:34;10.60;;;7.23;;
4762;SDS011;2395;50.738;7.122;2022-08-01T05:48:18;12.47;;;9.20;;
4762;SDS011;2395;50.738;7.122;2022-08-01T05:51:23;16.00;;;8.43;;
4762;SDS011;2395;50.738;7.122;2022-08-01T05:54:30;11.77;;;8.70;;
4762;SDS011;2395;50.738;7.122;2022-08-01T05:57:36;13.47;;;8.50;;
4762;SDS011;2395;50.738;7.122;2022-08-01T06:00:19;16.57;;;8.47;;
4762;SDS011;2395;50.738;7.122;2022-08-01T06:02:58;13.27;;;8.97;;
4762;SDS011;2395;50.738;7.122;2022-08-01T06:05:29;10.93;;;8.20;;
4762;SDS011;2395;50.738;7.122;2022-08-01T06:07:57;12.67;;;7.93;;
4762;SDS011;2395;50.738;7.122;2022-08-01T06:10:27;15.10;;;8.40;;
4762;SDS011;2395;50.738;7.122;2022-08-01T06:12:58;12.33;;;8.30;;
4762;SDS011;2395;50.738;7.122;2022-08-01T06:15:35;9.03;;;7.30;;
4762;SDS011;2395;50.738;7.122;2022-08-01T06:18:08;10.90;;;8.10;;
4762;SDS011;2395;50.738;7.122;2022-08-01T06:20:43;14.73;;;8.13;;
4762;SDS011;2395;50.738;7.122;2022-08-01T06:23:14;11.83;;;8.10;;
4762;SDS011;2395;50.738;7.122;2022-08-01T06:25:51;18.47;;;8.00;;
4762;SDS011;2395;50.738;7.122;2022-08-01T06:28:29;12.70;;;8.80;;
4762;SDS011;2395;50.738;7.122;2022-08-01T06:31:06;15.63;;;9.93;;
4762;SDS011;2395;50.738;7.122;2022-08-01T06:33:36;13.07;;;8.93;;
4762;SDS011;2395;50.738;7.122;2022-08-01T06:36:07;16.73;;;9.17;;
4762;SDS011;2395;50.738;7.122;2022-08-01T06:38:37;13.43;;;9.80;;
4762;SDS011;2395;50.738;7.122;2022-08-01T06:41:07;12.30;;;8.47;;
4762;SDS011;2395;50.738;7.122;2022-08-01T06:43:42;12.90;;;9.17;;
4762;SDS011;2395;50.738;7.122;2022-08-01T06:46:18;9.10;;;7.43;;
4762;SDS011;2395;50.738;7.122;2022-08-01T06:48:53;13.40;;;8.30;;
4762;SDS011;2395;50.738;7.122;2022-08-01T06:51:24;16.63;;;9.10;;
4762;SDS011;2395;50.738;7.122;2022-08-01T06:53:54;13.20;;;7.33;;
4762;SDS011;2395;50.738;7.122;2022-08-01T06:56:24;12.73;;;7.70;;
4762;SDS011;2395;50.738;7.122;2022-08-01T06:59:02;13.90;;;7.93;;
4762;SDS011;2395;50.738;7.122;2022-08-01T07:01:36;10.17;;;7.70;;
4762;SDS011;2395;50.738;7.122;2022-08-01T07:04:10;13.33;;;8.00;;
4762;SDS011;2395;50.738;7.122;2022-08-01T07:06:52;14.47;;;8.63;;
4762;SDS011;2395;50.738;7.122;2022-08-01T07:09:22;10.80;;;8.50;;
4762;SDS011;2395;50.738;7.122;2022-08-01T07:11:56;12.27;;;8.87;;
4762;SDS011;2395;50.738;7.122;2022-08-01T07:14:36;13.47;;;8.67;;
4762;SDS011;2395;50.738;7.122;2022-08-01T07:17:06;14.83;;;9.60;;
4762;SDS011;2395;50.738;7.122;2022-08-01T07:19:40;17.87;;;10.73;;
4762;SDS011;2395;50.738;7.122;2022-08-01T07:22:48;16.23;;;11.07;;
4762;SDS011;2395;50.738;7.122;2022-08-01T07:25:25;13.50;;;9.80;;
4762;SDS011;2395;50.738;7.122;2022-08-01T07:28:19;14.10;;;10.00;;
4762;SDS011;2395;50.738;7.122;2022-08-01T07:30:53;18.70;;;10.23;;
4762;SDS011;2395;50.738;7.122;2022-08-01T07:33:32;13.10;;;10.07;;
4762;SDS011;2395;50.738;7.122;2022-08-01T07:36:40;15.40;;;9.57;;
4762;SDS011;2395;50.738;7.122;2022-08-01T07:42:04;12.90;;;8.87;;
4762;SDS011;2395;50.738;7.122;2022-08-01T07:44:34;15.17;;;10.33;;
4762;SDS011;2395;50.738;7.122;2022-08-01T07:47:15;13.03;;;8.87;;
4762;SDS011;2395;50.738;7.122;2022-08-01T07:49:58;12.43;;;9.50;;
4762;SDS011;2395;50.738;7.122;2022-08-01T07:52:39;13.33;;;9.00;;
4762;SDS011;2395;50.738;7.122;2022-08-01T07:55:30;15.93;;;8.90;;
4762;SDS011;2395;50.738;7.122;2022-08-01T07:58:07;12.43;;;8.60;;
4762;SDS011;2395;50.738;7.122;2022-08-01T08:00:35;17.10;;;9.07;;
4762;SDS011;2395;50.738;7.122;2022-08-01T08:03:04;10.57;;;9.47;;
4762;SDS011;2395;50.738;7.122;2022-08-01T08:05:37;15.53;;;9.60;;
4762;SDS011;2395;50.738;7.122;2022-08-01T08:08:13;16.23;;;9.47;;
4762;SDS011;2395;50.738;7.122;2022-08-01T08:10:43;10.80;;;8.73;;
4762;SDS011;2395;50.738;7.122;2022-08-01T08:13:12;15.50;;;9.20;;
4762;SDS011;2395;50.738;7.122;2022-08-01T08:15:44;9.40;;;8.50;;
4762;SDS011;2395;50.738;7.122;2022-08-01T08:18:19;12.60;;;9.07;;
4762;SDS011;2395;50.738;7.122;2022-08-01T08:20:57;11.33;;;7.93;;
4762;SDS011;2395;50.738;7.122;2022-08-01T08:23:35;11.87;;;8.27;;
4762;SDS011;2395;50.738;7.122;2022-08-01T08:26:27;11.00;;;7.83;;
4762;SDS011;2395;50.738;7.122;2022-08-01T08:29:03;11.60;;;8.10;;
4762;SDS011;2395;50.738;7.122;2022-08-01T08:31:44;10.23;;;8.10;;
4762;SDS011;2395;50.738;7.122;2022-08-01T08:34:17;10.73;;;7.70;;
4762;SDS011;2395;50.738;7.122;2022-08-01T08:37:04;11.43;;;6.73;;
4762;SDS011;2395;50.738;7.122;2022-08-01T08:39:49;11.40;;;7.80;;
4762;SDS011;2395;50.738;7.122;2022-08-01T08:42:29;10.20;;;6.47;;
4762;SDS011;2395;50.738;7.122;2022-08-01T08:45:03;10.60;;;7.20;;
4762;SDS011;2395;50.738;7.122;2022-08-01T08:47:52;8.80;;;7.90;;
4762;SDS011;2395;50.738;7.122;2022-08-01T08:50:28;14.40;;;7.43;;
4762;SDS011;2395;50.738;7.122;2022-08-01T08:53:06;13.90;;;6.73;;
4762;SDS011;2395;50.738;7.122;2022-08-01T08:56:05;9.23;;;6.80;;
4762;SDS011;2395;50.738;7.122;2022-08-01T08:58:43;8.40;;;7.17;;
4762;SDS011;2395;50.738;7.122;2022-08-01T09:02:04;13.43;;;7.70;;
4762;SDS011;2395;50.738;7.122;2022-08-01T09:04:45;12.07;;;8.20;;
4762;SDS011;2395;50.738;7.122;2022-08-01T09:07:20;10.73;;;7.30;;
4762;SDS011;2395;50.738;7.122;2022-08-01T09:09:51;9.17;;;8.20;;
4762;SDS011;2395;50.738;7.122;2022-08-01T09:12:20;15.20;;;8.67;;
4762;SDS011;2395;50.738;7.122;2022-08-01T09:14:51;14.70;;;7.53;;
4762;SDS011;2395;50.738;7.122;2022-08-01T09:17:30;10.47;;;7.27;;
4762;SDS011;2395;50.738;7.122;2022-08-01T09:20:07;7.97;;;6.73;;
4762;SDS011;2395;50.738;7.122;2022-08-01T09:22:52;7.63;;;5.90;;
4762;SDS011;2395;50.738;7.122;2022-08-01T09:25:24;8.57;;;6.23;;
4762;SDS011;2395;50.738;7.122;2022-08-01T09:28:26;6.93;;;5.73;;
4762;SDS011;2395;50.738;7.122;2022-08-01T09:31:09;8.60;;;7.00;;
4762;SDS011;2395;50.738;7.122;2022-08-01T09:36:43;6.90;;;5.90;;
4762;SDS011;2395;50.738;7.122;2022-08-01T09:39:21;9.33;;;5.97;;
4762;SDS011;2395;50.738;7.122;2022-08-01T09:41:53;8.57;;;6.07;;
4762;SDS011;2395;50.738;7.122;2022-08-01T09:44:37;8.47;;;5.00;;
4762;SDS011;2395;50.738;7.122;2022-08-01T09:47:08;7.00;;;5.43;;
4762;SDS011;2395;50.738;7.122;2022-08-01T09:49:40;8.10;;;6.13;;
4762;SDS011;2395;50.738;7.122;2022-08-01T09:52:35;11.47;;;5.30;;
4762;SDS011;2395;50.738;7.122;2022-08-01T09:55:06;6.40;;;5.03;;
4762;SDS011;2395;50.738;7.122;2022-08-01T09:57:40;7.00;;;6.13;;
4762;SDS011;2395;50.738;7.122;2022-08-01T10:00:27;8.90;;;5.60;;
4762;SDS011;2395;50.738;7.122;2022-08-01T10:05:55;6.20;;;4.47;;
4762;SDS011;2395;50.738;7.122;2022-08-01T10:08:27;7.07;;;4.67;;
4762;SDS011;2395;50.738;7.122;2022-08-01T10:11:24;7.00;;;4.07;;
4762;SDS011;2395;50.738;7.122;2022-08-01T10:14:04;12.00;;;9.93;;
4762;SDS011;2395;50.738;7.122;2022-08-01T10:16:49;6.73;;;4.47;;
4762;SDS011;2395;50.738;7.122;2022-08-01T10:19:23;7.83;;;5.80;;
4762;SDS011;2395;50.738;7.122;2022-08-01T10:21:54;10.20;;;5.70;;
4762;SDS011;2395;50.738;7.122;2022-08-01T10:24:29;8.63;;;4.93;;
4762;SDS011;2395;50.738;7.122;2022-08-01T10:27:29;5.47;;;3.87;;
4762;SDS011;2395;50.738;7.122;2022-08-01T10:30:22;7.83;;;6.00;;
4762;SDS011;2395;50.738;7.122;2022-08-01T10:32:58;6.53;;;4.87;;
4762;SDS011;2395;50.738;7.122;2022-08-01T10:35:33;5.90;;;4.73;;
4762;SDS011;2395;50.738;7.122;2022-08-01T10:38:00;7.87;;;5.33;;
4762;SDS011;2395;50.738;7.122;2022-08-01T10:40:29;9.80;;;5.27;;
4762;SDS011;2395;50.738;7.122;2022-08-01T10:42:57;8.23;;;5.90;;
4762;SDS011;2395;50.738;7.122;2022-08-01T10:45:25;6.83;;;4.90;;
4762;SDS011;2395;50.738;7.122;2022-08-01T10:47:56;7.40;;;5.83;;
4762;SDS011;2395;50.738;7.122;2022-08-01T10:50:35;5.90;;;5.10;;
4762;SDS011;2395;50.738;7.122;2022-08-01T10:53:12;8.03;;;5.30;;
4762;SDS011;2395;50.738;7.122;2022-08-01T10:55:46;5.50;;;4.73;;
4762;SDS011;2395;50.738;7.122;2022-08-01T10:58:19;6.33;;;5.20;;
4762;SDS011;2395;50.738;7.122;2022-08-01T11:00:49;7.43;;;5.40;;
4762;SDS011;2395;50.738;7.122;2022-08-01T11:04:00;10.63;;;5.23;;
4762;SDS011;2395;50.738;7.122;2022-08-01T11:06:42;6.27;;;5.27;;
4762;SDS011;2395;50.738;7.122;2022-08-01T11:09:20;7.17;;;5.20;;
4762;SDS011;2395;50.738;7.122;2022-08-01T11:11:59;8.13;;;5.00;;
4762;SDS011;2395;50.738;7.122;2022-08-01T11:14:30;7.07;;;5.30;;
4762;SDS011;2395;50.738;7.122;2022-08-01T11:17:29;6.70;;;4.80;;
4762;SDS011;2395;50.738;7.122;2022-08-01T11:20:09;7.13;;;5.77;;
4762;SDS011;2395;50.738;7.122;2022-08-01T11:26:07;5.33;;;4.60;;
4762;SDS011;2395;50.738;7.122;2022-08-01T11:28:40;9.70;;;4.23;;
4762;SDS011;2395;50.738;7.122;2022-08-01T11:31:32;5.43;;;4.50;;
4762;SDS011;2395;50.738;7.122;2022-08-01T11:34:00;5.60;;;4.73;;
4762;SDS011;2395;50.738;7.122;2022-08-01T11:36:29;8.07;;;4.80;;
4762;SDS011;2395;50.738;7.122;2022-08-01T11:39:15;7.53;;;5.10;;
4762;SDS011;2395;50.738;7.122;2022-08-01T11:41:45;5.50;;;4.63;;
4762;SDS011;2395;50.738;7.122;2022-08-01T11:44:14;12.17;;;4.50;;
4762;SDS011;2395;50.738;7.122;2022-08-01T11:46:54;7.77;;;4.53;;
4762;SDS011;2395;50.738;7.122;2022-08-01T11:49:45;5.50;;;4.33;;
4762;SDS011;2395;50.738;7.122;2022-08-01T11:52:25;4.47;;;4.07;;
4762;SDS011;2395;50.738;7.122;2022-08-01T11:54:54;6.70;;;4.60;;
4762;SDS011;2395;50.738;7.122;2022-08-01T11:57:24;4.77;;;4.27;;
4762;SDS011;2395;50.738;7.122;2022-08-01T11:59:56;6.87;;;5.37;;
4762;SDS011;2395;50.738;7.122;2022-08-01T12:02:25;5.50;;;4.53;;
4762;SDS011;2395;50.738;7.122;2022-08-01T12:04:55;8.37;;;5.70;;
4762;SDS011;2395;50.738;7.122;2022-08-01T12:07:26;5.20;;;4.70;;
4762;SDS011;2395;50.738;7.122;2022-08-01T12:09:59;10.50;;;5.20;;
4762;SDS011;2395;50.738;7.122;2022-08-01T12:12:28;7.17;;;4.37;;
4762;SDS011;2395;50.738;7.122;2022-08-01T12:14:59;4.73;;;4.23;;
4762;SDS011;2395;50.738;7.122;2022-08-01T12:17:31;4.93;;;4.40;;
4762;SDS011;2395;50.738;7.122;2022-08-01T12:20:01;5.17;;;4.07;;
4762;SDS011;2395;50.738;7.122;2022-08-01T12:22:32;4.50;;;3.70;;
4762;SDS011;2395;50.738;7.122;2022-08-01T12:25:04;6.20;;;4.37;;
4762;SDS011;2395;50.738;7.122;2022-08-01T12:27:34;6.43;;;5.03;;
4762;SDS011;2395;50.738;7.122;2022-08-01T12:30:04;6.90;;;5.00;;
4762;SDS011;2395;50.738;7.122;2022-08-01T12:32:35;7.40;;;5.10;;
4762;SDS011;2395;50.738;7.122;2022-08-01T12:35:04;7.20;;;4.73;;
4762;SDS011;2395;50.738;7.122;2022-08-01T12:37:36;4.70;;;4.10;;
4762;SDS011;2395;50.738;7.122;2022-08-01T12:40:11;6.33;;;4.90;;
4762;SDS011;2395;50.738;7.122;2022-08-01T12:42:42;9.23;;;4.27;;
4762;SDS011;2395;50.738;7.122;2022-08-01T12:45:12;6.87;;;5.33;;
4762;SDS011;2395;50.738;7.122;2022-08-01T12:47:46;6.53;;;4.90;;
4762;SDS011;2395;50.738;7.122;2022-08-01T12:50:15;4.70;;;3.93;;
4762;SDS011;2395;50.738;7.122;2022-08-01T12:52:47;7.90;;;4.40;;
4762;SDS011;2395;50.738;7.122;2022-08-01T12:55:16;6.40;;;4.10;;
4762;SDS011;2395;50.738;7.122;2022-08-01T12:57:46;6.57;;;3.60;;
4762;SDS011;2395;50.738;7.122;2022-08-01T13:00:20;6.57;;;4.10;;
4762;SDS011;2395;50.738;7.122;2022-08-01T13:05:40;7.27;;;3.87;;
4762;SDS011;2395;50.738;7.122;2022-08-01T13:08:11;5.20;;;3.80;;
4762;SDS011;2395;50.738;7.122;2022-08-01T13:10:40;5.77;;;3.70;;
4762;SDS011;2395;50.738;7.122;2022-08-01T13:13:09;6.47;;;4.07;;
4762;SDS011;2395;50.738;7.122;2022-08-01T13:15:38;3.53;;;3.10;;
4762;SDS011;2395;50.738;7.122;2022-08-01T13:18:24;7.03;;;2.70;;
4762;SDS011;2395;50.738;7.122;2022-08-01T13:24:01;6.13;;;2.70;;
4762;SDS011;2395;50.738;7.122;2022-08-01T13:26:42;5.37;;;2.90;;
4762;SDS011;2395;50.738;7.122;2022-08-01T13:29:12;4.60;;;2.40;;
4762;SDS011;2395;50.738;7.122;2022-08-01T13:31:41;4.03;;;2.47;;
4762;SDS011;2395;50.738;7.122;2022-08-01T13:34:10;3.20;;;2.30;;
4762;SDS011;2395;50.738;7.122;2022-08-01T13:36:38;3.50;;;2.60;;
4762;SDS011;2395;50.738;7.122;2022-08-01T13:39:07;3.80;;;3.20;;
4762;SDS011;2395;50.738;7.122;2022-08-01T13:41:53;5.50;;;3.63;;
4762;SDS011;2395;50.738;7.122;2022-08-01T13:44:20;4.73;;;3.33;;
4762;SDS011;2395;50.738;7.122;2022-08-01T13:46:47;7.10;;;3.93;;
4762;SDS011;2395;50.738;7.122;2022-08-01T13:49:14;5.30;;;3.37;;
4762;SDS011;2395;50.738;7.122;2022-08-01T13:51:41;4.80;;;3.50;;
4762;SDS011;2395;50.738;7.122;2022-08-01T13:54:10;6.23;;;4.00;;
4762;SDS011;2395;50.738;7.122;2022-08-01T13:56:37;3.83;;;3.47;;
4762;SDS011;2395;50.738;7.122;2022-08-01T13:59:04;6.33;;;3.77;;
4762;SDS011;2395;50.738;7.122;2022-08-01T14:01:31;4.27;;;3.37;;
4762;SDS011;2395;50.738;7.122;2022-08-01T14:03:58;5.20;;;3.67;;
4762;SDS011;2395;50.738;7.122;2022-08-01T14:06:25;7.60;;;4.27;;
4762;SDS011;2395;50.738;7.122;2022-08-01T14:08:52;5.33;;;4.10;;
4762;SDS011;2395;50.738;7.122;2022-08-01T14:11:20;5.30;;;3.60;;
4762;SDS011;2395;50.738;7.122;2022-08-01T14:13:48;5.27;;;4.07;;
4762;SDS011;2395;50.738;7.122;2022-08-01T14:16:15;5.00;;;3.90;;
4762;SDS011;2395;50.738;7.122;2022-08-01T14:18:43;8.53;;;3.60;;
4762;SDS011;2395;50.738;7.122;2022-08-01T14:21:10;3.90;;;3.30;;
4762;SDS011;2395;50.738;7.122;2022-08-01T14:23:38;3.30;;;2.87;;
4762;SDS011;2395;50.738;7.122;2022-08-01T14:26:05;5.83;;;3.50;;
4762;SDS011;2395;50.738;7.122;2022-08-01T14:28:33;5.60;;;3.43;;
4762;SDS011;2395;50.738;7.122;2022-08-01T14:31:00;6.40;;;3.10;;
4762;SDS011;2395;50.738;7.122;2022-08-01T14:33:27;3.67;;;2.87;;
4762;SDS011;2395;50.738;7.122;2022-08-01T14:35:55;4.53;;;3.10;;
4762;SDS011;2395;50.738;7.122;2022-08-01T14:38:22;5.93;;;2.90;;
4762;SDS011;2395;50.738;7.122;2022-08-01T14:40:50;3.80;;;2.77;;
4762;SDS011;2395;50.738;7.122;2022-08-01T14:43:18;8.73;;;2.63;;
4762;SDS011;2395;50.738;7.122;2022-08-01T14:45:47;5.60;;;2.87;;
4762;SDS011;2395;50.738;7.122;2022-08-01T14:48:17;5.10;;;2.80;;
4762;SDS011;2395;50.738;7.122;2022-08-01T14:50:44;4.83;;;2.80;;
4762;SDS011;2395;50.738;7.122;2022-08-01T14:53:11;6.23;;;3.33;;
4762;SDS011;2395;50.738;7.122;2022-08-01T14:55:38;5.20;;;2.90;;
4762;SDS011;2395;50.738;7.122;2022-08-01T14:58:05;8.63;;;2.77;;
4762;SDS011;2395;50.738;7.122;2022-08-01T15:00:32;4.37;;;3.00;;
4762;SDS011;2395;50.738;7.122;2022-08-01T15:03:01;5.13;;;2.93;;
4762;SDS011;2395;50.738;7.122;2022-08-01T15:05:28;6.73;;;2.93;;
4762;SDS011;2395;50.738;7.122;2022-08-01T15:07:55;3.93;;;2.87;;
4762;SDS011;2395;50.738;7.122;2022-08-01T15:10:22;3.57;;;2.70;;
4762;SDS011;2395;50.738;7.122;2022-08-01T15:12:49;5.50;;;3.23;;
4762;SDS011;2395;50.738;7.122;2022-08-01T15:15:16;7.97;;;2.90;;
4762;SDS011;2395;50.738;7.122;2022-08-01T15:17:44;3.67;;;2.70;;
4762;SDS011;2395;50.738;7.122;2022-08-01T15:20:12;8.57;;;3.07;;
4762;SDS011;2395;50.738;7.122;2022-08-01T15:22:39;5.80;;;3.20;;
4762;SDS011;2395;50.738;7.122;2022-08-01T15:25:06;3.27;;;2.93;;
4762;SDS011;2395;50.738;7.122;2022-08-01T15:27:35;4.87;;;3.10;;
4762;SDS011;2395;50.738;7.122;2022-08-01T15:30:03;6.00;;;2.50;;
4762;SDS011;2395;50.738;7.122;2022-08-01T15:32:31;6.83;;;3.10;;
4762;SDS011;2395;50.738;7.122;2022-08-01T15:34:58;4.53;;;2.47;;
4762;SDS011;2395;50.738;7.122;2022-08-01T15:37:26;5.23;;;2.83;;
4762;SDS011;2395;50.738;7.122;2022-08-01T15:39:53;5.30;;;2.67;;
4762;SDS011;2395;50.738;7.122;2022-08-01T15:42:20;6.53;;;2.67;;
4762;SDS011;2395;50.738;7.122;2022-08-01T15:44:47;3.73;;;2.90;;
4762;SDS011;2395;50.738;7.122;2022-08-01T15:47:14;3.40;;;2.07;;
4762;SDS011;2395;50.738;7.122;2022-08-01T15:49:41;2.47;;;2.17;;
4762;SDS011;2395;50.738;7.122;2022-08-01T15:52:08;4.20;;;2.60;;
4762;SDS011;2395;50.738;7.122;2022-08-01T15:54:37;3.50;;;2.40;;
4762;SDS011;2395;50.738;7.122;2022-08-01T15:57:05;5.63;;;2.50;;
4762;SDS011;2395;50.738;7.122;2022-08-01T15:59:33;3.80;;;2.50;;
4762;SDS011;2395;50.738;7.122;2022-08-01T16:02:00;3.90;;;2.90;;
4762;SDS011;2395;50.738;7.122;2022-08-01T16:04:27;8.53;;;2.30;;
4762;SDS011;2395;50.738;7.122;2022-08-01T16:06:54;4.13;;;2.57;;
4762;SDS011;2395;50.738;7.122;2022-08-01T16:09:21;2.90;;;2.47;;
4762;SDS011;2395;50.738;7.122;2022-08-01T16:11:49;3.00;;;2.10;;
4762;SDS011;2395;50.738;7.122;2022-08-01T16:14:16;6.30;;;2.50;;
4762;SDS011;2395;50.738;7.122;2022-08-01T16:16:45;4.83;;;2.60;;
4762;SDS011;2395;50.738;7.122;2022-08-01T16:19:12;4.00;;;2.50;;
4762;SDS011;2395;50.738;7.122;2022-08-01T16:21:40;3.60;;;2.30;;
4762;SDS011;2395;50.738;7.122;2022-08-01T16:24:07;4.40;;;2.07;;